Time;durP1;ratioP1;P1;durP2;ratioP2;P2;SDS_P1;SDS_P2;PMS_P1;PMS_P2;Temp;Humidity;BMP_temperature;BMP_pressure;BME280_temperature;BME280_humidity;BME280_pressure;Samples;Min_cycle;Max_cycle;Signal;HPM_P1;HPM_P2
2023/02/05 00:00:27;;;;;;;9.10;5.18;;;8.80;99.90;;;;;;4901482;29;20040;-77
2023/02/05 00:02:53;;;;;;;8.20;4.60;;;8.80;99.90;;;;;;4893518;29;20040;-76
2023/02/05 00:05:20;;;;;;;10.10;5.47;;;8.80;99.90;;;;;;4898878;29;20135;-76
2023/02/05 00:07:47;;;;;;;11.55;5.60;;;8.80;99.90;;;;;;4899975;29;20036;-77
2023/02/05 00:10:13;;;;;;;8.73;4.95;;;8.80;99.90;;;;;;4899026;29;20073;-76
2023/02/05 00:12:40;;;;;;;8.20;4.82;;;8.80;99.90;;;;;;4899785;29;20052;-77
2023/02/05 00:15:07;;;;;;;11.82;4.43;;;8.80;99.90;;;;;;4899757;29;20127;-76
2023/02/05 00:17:33;;;;;;;10.85;5.93;;;8.80;99.90;;;;;;4913787;29;20108;-77
2023/02/05 00:20:00;;;;;;;13.60;5.97;;;8.80;99.90;;;;;;4899657;29;20044;-77
2023/02/05 00:22:27;;;;;;;10.60;5.07;;;8.80;99.90;;;;;;4913454;29;20044;-76
2023/02/05 00:24:53;;;;;;;9.05;6.28;;;8.80;99.90;;;;;;4899603;29;20429;-76
2023/02/05 00:27:20;;;;;;;8.98;4.80;;;8.80;99.90;;;;;;4899338;29;20052;-76
2023/02/05 00:29:47;;;;;;;11.25;5.43;;;8.80;99.90;;;;;;4902020;29;20139;-76
2023/02/05 00:32:13;;;;;;;12.40;5.45;;;8.80;99.90;;;;;;4905851;29;20048;-76
2023/02/05 00:34:40;;;;;;;12.50;6.28;;;8.80;99.90;;;;;;4904924;29;20052;-76
2023/02/05 00:37:07;;;;;;;12.05;5.00;;;8.80;99.90;;;;;;4903765;29;20040;-76
2023/02/05 00:39:34;;;;;;;10.57;4.45;;;8.80;99.90;;;;;;4904665;29;20052;-75
2023/02/05 00:42:01;;;;;;;9.93;4.80;;;8.80;99.90;;;;;;4920952;29;20056;-76
2023/02/05 00:44:27;;;;;;;11.35;5.38;;;8.80;99.90;;;;;;4919728;29;20056;-78
2023/02/05 00:46:54;;;;;;;8.18;4.65;;;8.80;99.90;;;;;;4905232;29;20131;-76
2023/02/05 00:49:21;;;;;;;10.70;5.07;;;8.80;99.90;;;;;;4920058;29;20044;-77
2023/02/05 00:51:47;;;;;;;9.63;5.70;;;8.80;99.90;;;;;;4920358;29;20056;-78
2023/02/05 00:54:14;;;;;;;15.23;5.93;;;8.80;99.90;;;;;;4905697;29;20041;-78
2023/02/05 00:56:42;;;;;;;14.48;6.05;;;8.70;99.90;;;;;;4888218;29;20044;-78
2023/02/05 00:59:08;;;;;;;12.15;5.63;;;8.60;99.90;;;;;;4905228;29;20044;-77
2023/02/05 01:01:35;;;;;;;15.25;6.55;;;8.50;99.90;;;;;;4920386;29;20083;-76
2023/02/05 01:04:02;;;;;;;14.95;6.38;;;8.50;99.90;;;;;;4888401;29;20471;-75
2023/02/05 01:06:29;;;;;;;14.50;5.90;;;8.50;99.90;;;;;;4905192;29;20080;-76
2023/02/05 01:08:55;;;;;;;10.82;5.53;;;8.40;99.90;;;;;;4905059;29;20052;-76
2023/02/05 01:11:22;;;;;;;10.80;5.32;;;8.40;99.90;;;;;;4904609;29;20063;-76
2023/02/05 01:13:48;;;;;;;11.30;6.20;;;8.40;99.90;;;;;;4888978;29;20063;-78
2023/02/05 01:16:15;;;;;;;11.70;5.28;;;8.40;99.90;;;;;;4919339;29;20401;-76
2023/02/05 01:18:42;;;;;;;17.73;6.20;;;8.40;99.90;;;;;;4904652;29;20460;-78
2023/02/05 01:21:09;;;;;;;12.40;5.82;;;8.40;99.90;;;;;;4906121;29;20453;-78
2023/02/05 01:23:36;;;;;;;13.23;5.75;;;8.40;99.90;;;;;;4904334;29;20100;-78
2023/02/05 01:26:04;;;;;;;12.40;4.78;;;8.40;99.90;;;;;;4919986;29;20063;-76
2023/02/05 01:28:31;;;;;;;12.10;6.32;;;8.40;99.90;;;;;;4904761;29;20044;-76
2023/02/05 01:30:57;;;;;;;9.90;5.72;;;8.40;99.90;;;;;;4919815;29;20135;-79
2023/02/05 01:33:24;;;;;;;11.57;6.28;;;8.40;99.90;;;;;;4905130;29;20109;-76
2023/02/05 01:35:51;;;;;;;10.43;5.40;;;8.50;99.90;;;;;;4903399;29;20387;-78
2023/02/05 01:38:17;;;;;;;12.27;5.93;;;8.50;99.90;;;;;;4904257;29;20036;-78
2023/02/05 01:40:44;;;;;;;11.00;6.03;;;8.50;99.90;;;;;;4902993;29;20040;-78
2023/02/05 01:43:11;;;;;;;11.75;5.38;;;8.50;99.90;;;;;;4901433;29;20040;-75
2023/02/05 01:45:37;;;;;;;17.58;6.25;;;8.50;99.90;;;;;;4901104;29;20107;-78
2023/02/05 01:48:05;;;;;;;12.32;5.82;;;8.50;99.90;;;;;;4900986;29;20100;-78
2023/02/05 01:50:31;;;;;;;12.50;6.65;;;8.50;99.90;;;;;;4916338;29;20371;-77
2023/02/05 01:52:58;;;;;;;17.52;7.00;;;8.50;99.90;;;;;;4902149;29;20040;-77
2023/02/05 01:55:24;;;;;;;13.25;5.30;;;8.60;99.90;;;;;;4916570;29;20072;-76
2023/02/05 01:57:52;;;;;;;12.63;5.65;;;8.60;99.90;;;;;;4900698;29;20051;-78
2023/02/05 02:00:19;;;;;;;15.68;6.30;;;8.60;99.90;;;;;;4916691;29;20155;-76
2023/02/05 02:02:46;;;;;;;14.68;5.82;;;8.60;99.90;;;;;;4899297;29;20052;-76
2023/02/05 02:05:13;;;;;;;23.50;6.97;;;8.60;99.90;;;;;;4900192;29;20646;-76
2023/02/05 02:07:41;;;;;;;12.65;5.82;;;8.70;99.90;;;;;;4900697;29;20045;-76
2023/02/05 02:10:07;;;;;;;13.63;5.70;;;8.70;99.90;;;;;;4915966;29;20048;-75
2023/02/05 02:12:34;;;;;;;17.08;5.43;;;8.70;99.90;;;;;;4900847;29;20511;-76
2023/02/05 02:15:03;;;;;;;9.98;5.32;;;8.70;99.90;;;;;;4901411;29;20052;-76
2023/02/05 02:17:29;;;;;;;10.30;4.93;;;8.70;99.90;;;;;;4915383;29;20051;-76
2023/02/05 02:19:56;;;;;;;12.52;5.97;;;8.70;99.90;;;;;;4916671;29;20057;-77
2023/02/05 02:22:22;;;;;;;10.73;4.93;;;8.70;99.90;;;;;;4915602;29;20486;-76
2023/02/05 02:24:49;;;;;;;12.93;5.70;;;8.80;99.90;;;;;;4916485;29;20057;-76
2023/02/05 02:27:16;;;;;;;13.13;5.07;;;8.80;99.90;;;;;;4901322;29;20056;-76
2023/02/05 02:29:43;;;;;;;8.95;5.85;;;8.80;99.90;;;;;;4915915;29;20056;-76
2023/02/05 02:32:10;;;;;;;10.13;5.50;;;8.80;99.90;;;;;;4900597;29;20474;-76
2023/02/05 02:34:36;;;;;;;8.60;4.95;;;8.80;99.90;;;;;;4916033;29;20194;-76
2023/02/05 02:37:04;;;;;;;11.65;4.70;;;8.80;99.90;;;;;;4900351;29;20547;-76
2023/02/05 02:39:31;;;;;;;8.48;6.43;;;8.80;99.90;;;;;;4900252;29;20053;-76
2023/02/05 02:41:58;;;;;;;11.05;5.70;;;8.70;99.90;;;;;;4900271;29;20045;-76
2023/02/05 02:44:27;;;;;;;8.52;4.88;;;8.70;99.90;;;;;;4899315;29;20091;-76
2023/02/05 02:46:55;;;;;;;11.00;4.93;;;8.60;99.90;;;;;;4901165;29;20051;-76
2023/02/05 02:49:22;;;;;;;10.25;5.18;;;8.50;99.90;;;;;;4899613;29;20408;-76
2023/02/05 02:51:49;;;;;;;10.15;4.95;;;8.40;99.90;;;;;;4899831;29;20040;-77
2023/02/05 02:54:16;;;;;;;9.73;5.03;;;8.20;99.90;;;;;;4901021;29;20045;-77
2023/02/05 02:56:43;;;;;;;8.07;5.13;;;8.20;99.90;;;;;;4898988;29;20384;-77
2023/02/05 02:59:10;;;;;;;9.57;5.25;;;8.10;99.90;;;;;;4885002;29;20072;-76
2023/02/05 03:01:37;;;;;;;14.52;5.15;;;7.90;99.90;;;;;;4899981;29;20108;-76
2023/02/05 03:04:05;;;;;;;9.40;5.50;;;7.80;99.90;;;;;;4883950;29;20345;-77
2023/02/05 03:06:32;;;;;;;12.23;4.93;;;7.80;99.90;;;;;;4899503;29;20052;-76
2023/02/05 03:08:59;;;;;;;7.55;4.85;;;7.80;99.90;;;;;;4898821;29;20575;-77
2023/02/05 03:11:26;;;;;;;9.57;4.90;;;7.70;99.90;;;;;;4899757;29;20539;-76
2023/02/05 03:13:52;;;;;;;9.13;4.97;;;7.60;99.90;;;;;;4899492;29;20052;-76
2023/02/05 03:16:23;;;;;;;10.18;4.75;;;7.60;99.90;;;;;;4898736;29;20048;-76
2023/02/05 03:18:50;;;;;;;8.85;4.68;;;7.50;99.90;;;;;;4884261;29;20052;-76
2023/02/05 03:21:17;;;;;;;10.80;6.05;;;7.40;99.90;;;;;;4899496;29;20063;-77
2023/02/05 03:23:44;;;;;;;8.88;4.43;;;7.40;99.90;;;;;;4899501;29;20047;-76
2023/02/05 03:26:11;;;;;;;9.52;5.13;;;7.40;99.90;;;;;;4899221;29;20045;-77
2023/02/05 03:28:43;;;;;;;5.25;3.60;;;7.40;99.90;;;;;;4885639;29;20059;-76
2023/02/05 03:31:09;;;;;;;5.30;4.45;;;7.30;99.90;;;;;;4899536;29;20104;-77
2023/02/05 03:33:36;;;;;;;10.45;4.25;;;7.30;99.90;;;;;;4883737;29;20044;-76
2023/02/05 03:36:03;;;;;;;7.95;3.90;;;7.30;99.90;;;;;;4899321;29;20380;-77
2023/02/05 03:38:30;;;;;;;10.35;4.20;;;7.40;99.90;;;;;;4899920;29;20041;-77
2023/02/05 03:40:57;;;;;;;11.80;4.45;;;7.40;99.90;;;;;;4914844;29;20053;-77
2023/02/05 03:43:28;;;;;;;7.20;4.15;;;7.40;99.90;;;;;;4898449;29;20052;-76
2023/02/05 03:45:56;;;;;;;8.30;4.20;;;7.40;99.90;;;;;;4914855;29;20079;-77
2023/02/05 03:48:24;;;;;;;7.43;4.10;;;7.40;99.90;;;;;;4899617;29;20123;-76
2023/02/05 03:50:51;;;;;;;5.95;3.35;;;7.40;99.90;;;;;;4899246;29;20132;-77
2023/02/05 03:53:18;;;;;;;8.70;3.75;;;7.30;99.90;;;;;;4914942;29;20044;-77
2023/02/05 03:55:45;;;;;;;5.18;3.38;;;7.20;99.90;;;;;;4898868;29;20100;-76
2023/02/05 03:58:12;;;;;;;7.38;2.88;;;7.10;99.90;;;;;;4898802;29;20479;-77
2023/02/05 04:00:39;;;;;;;5.00;2.60;;;7.00;99.90;;;;;;4915002;29;20053;-76
2023/02/05 04:03:06;;;;;;;6.03;2.25;;;6.90;99.90;;;;;;4882930;29;20379;-77
2023/02/05 04:05:34;;;;;;;6.78;2.55;;;6.80;99.90;;;;;;4898588;29;20437;-76
2023/02/05 04:08:02;;;;;;;3.53;1.90;;;6.70;99.90;;;;;;4914583;29;20115;-77
2023/02/05 04:10:35;;;;;;;7.65;2.10;;;6.70;99.90;;;;;;4898210;29;20086;-77
2023/02/05 04:13:02;;;;;;;3.60;2.05;;;6.60;99.90;;;;;;4883891;29;20058;-77
2023/02/05 04:15:29;;;;;;;5.07;1.65;;;6.60;99.90;;;;;;4883076;29;20140;-77
2023/02/05 04:17:58;;;;;;;4.53;1.57;;;6.60;99.90;;;;;;4898083;29;20068;-77
2023/02/05 04:20:27;;;;;;;6.72;2.72;;;6.50;99.90;;;;;;4914420;29;20044;-77
2023/02/05 04:22:54;;;;;;;7.57;1.83;;;6.40;99.90;;;;;;4913406;29;20055;-77
2023/02/05 04:25:22;;;;;;;9.07;2.90;;;6.30;99.90;;;;;;4898353;29;20049;-77
2023/02/05 04:27:50;;;;;;;8.30;2.00;;;6.30;99.90;;;;;;4898673;29;20054;-76
2023/02/05 04:30:17;;;;;;;5.72;1.77;;;6.20;99.90;;;;;;4913270;29;20052;-77
2023/02/05 04:32:45;;;;;;;6.90;2.05;;;6.10;99.90;;;;;;4899895;29;20123;-77
2023/02/05 04:35:14;;;;;;;8.85;2.53;;;6.10;99.90;;;;;;4899351;29;20468;-77
2023/02/05 04:37:42;;;;;;;4.03;1.90;;;6.00;99.90;;;;;;4897751;29;20059;-77
2023/02/05 04:40:09;;;;;;;6.50;1.58;;;6.00;99.90;;;;;;4883479;29;20063;-77
2023/02/05 04:42:36;;;;;;;6.75;2.20;;;5.90;99.90;;;;;;4899095;29;20383;-76
2023/02/05 04:45:04;;;;;;;4.90;2.03;;;5.90;99.90;;;;;;4899098;29;20048;-77
2023/02/05 04:47:31;;;;;;;5.97;2.22;;;5.90;99.90;;;;;;4899264;29;20049;-77
2023/02/05 04:49:58;;;;;;;9.07;2.42;;;5.90;99.90;;;;;;4897870;29;20044;-76
2023/02/05 04:52:24;;;;;;;6.35;1.90;;;5.80;99.90;;;;;;4899521;29;20048;-76
2023/02/05 04:54:51;;;;;;;5.47;1.80;;;5.80;99.90;;;;;;4898497;29;20059;-76
2023/02/05 04:57:18;;;;;;;8.60;2.33;;;5.80;99.90;;;;;;4898275;29;20131;-76
2023/02/05 04:59:44;;;;;;;10.43;2.28;;;5.70;99.90;;;;;;4899174;29;20135;-76
2023/02/05 05:02:11;;;;;;;9.13;2.58;;;5.70;99.90;;;;;;4899289;29;20037;-76
2023/02/05 05:04:38;;;;;;;6.85;1.92;;;5.60;99.90;;;;;;4898333;29;20041;-77
2023/02/05 05:07:08;;;;;;;7.68;2.25;;;5.60;99.90;;;;;;4898883;29;20052;-76
2023/02/05 05:09:34;;;;;;;7.65;1.67;;;5.50;99.90;;;;;;4882329;29;20106;-76
2023/02/05 05:12:01;;;;;;;7.80;2.03;;;5.50;99.90;;;;;;4898558;29;20059;-76
2023/02/05 05:14:28;;;;;;;4.00;1.77;;;5.50;99.90;;;;;;4882710;29;20052;-76
2023/02/05 05:16:54;;;;;;;6.68;1.58;;;5.50;99.90;;;;;;4883375;29;20056;-76
2023/02/05 05:19:21;;;;;;;7.47;2.20;;;5.50;99.90;;;;;;4902961;29;20040;-76
2023/02/05 05:21:48;;;;;;;8.35;2.00;;;5.40;99.90;;;;;;4917712;29;20044;-76
2023/02/05 05:24:14;;;;;;;3.10;1.50;;;5.40;99.90;;;;;;4901978;29;20040;-76
2023/02/05 05:26:43;;;;;;;8.70;2.53;;;5.40;99.90;;;;;;4902382;29;20464;-76
2023/02/05 05:29:10;;;;;;;7.57;3.20;;;5.40;99.90;;;;;;4916936;29;20433;-76
2023/02/05 05:31:37;;;;;;;6.07;2.08;;;5.30;99.90;;;;;;4902352;29;20472;-79
2023/02/05 05:34:03;;;;;;;4.60;1.80;;;5.30;99.90;;;;;;4901414;29;20122;-76
2023/02/05 05:36:32;;;;;;;7.45;2.30;;;5.30;99.90;;;;;;4900483;29;20040;-76
2023/02/05 05:43:45;;;;;;;6.88;2.78;;;5.20;99.90;;;;;;4917032;29;20056;-76
2023/02/05 05:44:30;;;;;;;6.63;2.50;;;5.10;99.90;;;;;;4901728;29;20379;-76
2023/02/05 05:46:58;;;;;;;11.85;3.10;;;5.00;99.90;;;;;;4901323;29;20053;-76
2023/02/05 05:49:25;;;;;;;6.20;2.35;;;5.00;99.90;;;;;;4901635;29;20059;-76
2023/02/05 05:51:52;;;;;;;9.02;2.33;;;4.90;99.90;;;;;;4901520;29;20052;-76
2023/02/05 05:54:18;;;;;;;9.05;2.35;;;4.90;99.90;;;;;;4901838;29;20049;-76
2023/02/05 05:56:48;;;;;;;7.68;2.75;;;4.80;99.90;;;;;;4901657;29;20041;-76
2023/02/05 05:59:14;;;;;;;3.88;1.98;;;4.80;99.90;;;;;;4917057;29;20053;-75
2023/02/05 06:01:42;;;;;;;8.20;2.55;;;4.80;99.90;;;;;;4902501;29;20072;-78
2023/02/05 06:04:09;;;;;;;8.07;2.22;;;4.80;99.90;;;;;;4901139;29;20044;-78
2023/02/05 06:06:36;;;;;;;5.97;2.17;;;4.80;99.90;;;;;;4902099;29;20044;-75
2023/02/05 06:09:03;;;;;;;9.15;3.35;;;4.70;99.90;;;;;;4901656;29;20053;-78
2023/02/05 06:11:30;;;;;;;10.68;3.45;;;4.70;99.90;;;;;;4901100;29;20056;-76
2023/02/05 06:13:56;;;;;;;6.82;2.55;;;4.70;99.90;;;;;;4901896;29;20135;-76
2023/02/05 06:16:23;;;;;;;6.25;2.92;;;4.60;99.90;;;;;;4900880;29;20044;-76
2023/02/05 06:18:50;;;;;;;8.82;2.67;;;4.60;99.90;;;;;;4901428;29;20044;-76
2023/02/05 06:21:16;;;;;;;10.95;2.58;;;4.50;99.90;;;;;;4902477;29;20384;-76
2023/02/05 06:23:43;;;;;;;6.90;2.13;;;4.50;99.90;;;;;;4901095;29;20060;-76
2023/02/05 06:26:11;;;;;;;15.63;3.45;;;4.50;99.90;;;;;;4901894;29;20048;-76
2023/02/05 06:28:38;;;;;;;6.43;2.38;;;4.50;99.90;;;;;;4901414;29;20472;-76
2023/02/05 06:31:04;;;;;;;6.60;2.53;;;4.40;99.90;;;;;;4900986;29;20044;-76
2023/02/05 06:33:31;;;;;;;8.00;2.63;;;4.40;99.90;;;;;;4902155;29;20044;-76
2023/02/05 06:35:57;;;;;;;9.65;2.40;;;4.40;99.90;;;;;;4900498;29;20116;-76
2023/02/05 06:38:24;;;;;;;11.82;3.22;;;4.40;99.90;;;;;;4900568;29;20535;-76
2023/02/05 06:40:51;;;;;;;11.77;2.90;;;4.40;99.90;;;;;;4901705;29;20076;-77
2023/02/05 06:43:17;;;;;;;12.15;2.55;;;4.40;99.90;;;;;;4900555;29;20037;-76
2023/02/05 06:45:44;;;;;;;12.50;4.47;;;4.30;99.90;;;;;;4901381;29;20353;-76
2023/02/05 06:48:11;;;;;;;9.40;3.53;;;4.30;99.90;;;;;;4901146;29;20334;-76
2023/02/05 06:50:38;;;;;;;6.03;2.38;;;4.30;99.90;;;;;;4899484;29;20056;-76
2023/02/05 06:53:04;;;;;;;8.35;3.70;;;4.20;99.90;;;;;;4884777;29;20048;-78
2023/02/05 06:55:31;;;;;;;11.43;3.55;;;4.20;99.90;;;;;;4901085;29;20045;-76
2023/02/05 06:57:58;;;;;;;10.32;3.30;;;4.20;99.90;;;;;;4915112;29;20494;-76
2023/02/05 07:00:25;;;;;;;10.15;3.17;;;4.20;99.90;;;;;;4884685;29;20048;-76
2023/02/05 07:02:53;;;;;;;8.73;3.15;;;4.20;99.90;;;;;;4915272;29;20036;-76
2023/02/05 07:05:20;;;;;;;9.02;2.40;;;4.10;99.90;;;;;;4899772;29;20049;-78
2023/02/05 07:07:48;;;;;;;10.35;2.35;;;4.10;99.90;;;;;;4901003;29;20055;-78
2023/02/05 07:10:15;;;;;;;11.82;3.58;;;4.20;99.90;;;;;;4900244;29;20088;-76
2023/02/05 07:12:42;;;;;;;12.95;3.25;;;4.20;99.90;;;;;;4900773;29;20049;-77
2023/02/05 07:15:08;;;;;;;6.13;3.05;;;4.30;99.90;;;;;;4900434;29;20041;-76
2023/02/05 07:17:36;;;;;;;10.43;2.80;;;4.30;99.90;;;;;;4914503;29;20471;-77
2023/02/05 07:20:02;;;;;;;10.68;2.90;;;4.30;99.90;;;;;;4899920;29;20110;-77
2023/02/05 07:22:29;;;;;;;7.60;3.10;;;4.30;99.90;;;;;;4914799;29;20044;-77
2023/02/05 07:24:56;;;;;;;8.98;2.30;;;4.20;99.90;;;;;;4900618;29;20134;-77
2023/02/05 07:27:23;;;;;;;7.18;2.72;;;4.10;99.90;;;;;;4900607;29;20040;-77
2023/02/05 07:29:50;;;;;;;7.15;2.53;;;4.10;99.90;;;;;;4899332;29;20064;-77
2023/02/05 07:32:16;;;;;;;9.48;2.72;;;4.00;99.90;;;;;;4900267;29;20145;-77
2023/02/05 07:34:43;;;;;;;12.70;3.05;;;4.00;99.90;;;;;;4898976;29;20383;-77
2023/02/05 07:37:09;;;;;;;16.50;3.30;;;3.90;99.90;;;;;;4899766;29;20037;-77
2023/02/05 07:39:36;;;;;;;15.57;4.40;;;3.90;99.90;;;;;;4899281;29;20063;-77
2023/02/05 07:42:03;;;;;;;5.90;2.28;;;3.90;99.90;;;;;;4900821;29;20388;-77
2023/02/05 07:44:39;;;;;;;7.50;2.60;;;3.80;99.90;;;;;;4898904;29;20060;-77
2023/02/05 07:47:06;;;;;;;15.75;3.50;;;3.80;99.90;;;;;;4899538;29;20456;-77
2023/02/05 07:49:33;;;;;;;9.52;3.10;;;3.80;99.90;;;;;;4899565;29;20063;-79
2023/02/05 07:51:59;;;;;;;12.52;2.72;;;3.80;99.90;;;;;;4911454;29;20112;-77
2023/02/05 07:54:26;;;;;;;9.15;3.58;;;3.70;99.90;;;;;;4905334;29;20045;-77
2023/02/05 07:56:54;;;;;;;8.40;3.17;;;3.70;99.90;;;;;;4882611;29;20471;-77
2023/02/05 07:59:20;;;;;;;11.45;2.90;;;3.70;99.90;;;;;;4898733;29;20044;-77
2023/02/05 08:01:47;;;;;;;15.27;3.20;;;3.70;99.90;;;;;;4906233;29;20051;-77
2023/02/05 08:04:14;;;;;;;9.68;3.05;;;3.70;99.90;;;;;;4918332;29;20382;-77
2023/02/05 08:06:40;;;;;;;11.57;2.92;;;3.70;99.90;;;;;;4900172;29;20041;-77
2023/02/05 08:09:07;;;;;;;11.93;2.83;;;3.70;99.90;;;;;;4903118;29;20092;-77
2023/02/05 08:11:34;;;;;;;9.70;2.50;;;3.70;99.90;;;;;;4902257;29;20044;-77
2023/02/05 08:14:01;;;;;;;8.00;2.30;;;3.70;99.90;;;;;;4900549;29;20040;-76
2023/02/05 08:16:27;;;;;;;12.70;2.63;;;3.70;99.90;;;;;;4899278;29;20044;-77
2023/02/05 08:18:54;;;;;;;15.52;3.42;;;3.80;99.90;;;;;;4916261;29;20041;-77
2023/02/05 08:21:21;;;;;;;9.20;3.25;;;3.80;99.90;;;;;;4915327;29;20422;-77
2023/02/05 08:23:48;;;;;;;12.95;3.92;;;3.80;99.90;;;;;;4914362;29;20055;-77
2023/02/05 08:26:16;;;;;;;8.25;3.45;;;3.80;99.90;;;;;;4898983;29;20055;-76
2023/02/05 08:28:43;;;;;;;13.52;2.17;;;3.90;99.90;;;;;;4912877;29;20120;-77
2023/02/05 08:31:09;;;;;;;13.57;3.38;;;3.90;99.90;;;;;;4898605;29;20044;-78
2023/02/05 08:33:36;;;;;;;13.48;3.40;;;3.90;99.90;;;;;;4898245;29;20053;-79
2023/02/05 08:36:03;;;;;;;12.77;2.88;;;3.90;99.90;;;;;;4895425;29;20058;-80
2023/02/05 08:38:29;;;;;;;10.68;2.83;;;3.90;99.90;;;;;;4898140;29;20131;-78
2023/02/05 08:40:56;;;;;;;8.55;2.80;;;4.00;99.90;;;;;;4898217;29;20045;-79
2023/02/05 08:43:23;;;;;;;11.40;2.72;;;4.10;99.90;;;;;;4898057;29;20052;-76
2023/02/05 08:45:50;;;;;;;10.80;3.20;;;4.20;99.90;;;;;;4896343;29;20123;-78
2023/02/05 08:48:16;;;;;;;10.63;4.20;;;4.20;99.90;;;;;;4903541;29;20516;-79
2023/02/05 08:50:43;;;;;;;13.25;3.72;;;4.20;99.90;;;;;;4880791;29;20057;-78
2023/02/05 08:53:09;;;;;;;6.15;2.25;;;4.40;99.90;;;;;;4883927;29;20064;-78
2023/02/05 08:55:36;;;;;;;15.15;3.38;;;4.40;99.90;;;;;;4885412;29;20049;-79
2023/02/05 08:58:04;;;;;;;12.40;4.00;;;4.60;99.90;;;;;;4867410;29;20041;-79
2023/02/05 09:00:32;;;;;;;12.65;3.47;;;4.60;99.90;;;;;;4898711;29;20120;-78
2023/02/05 09:02:58;;;;;;;11.77;3.28;;;4.70;99.90;;;;;;4895528;29;20064;-78
2023/02/05 09:05:25;;;;;;;25.27;4.90;;;4.70;99.90;;;;;;4902739;29;20452;-79
2023/02/05 09:07:52;;;;;;;12.98;3.70;;;4.80;99.90;;;;;;4902471;29;20040;-77
2023/02/05 09:10:18;;;;;;;10.88;3.05;;;4.80;99.90;;;;;;4902077;29;20432;-77
2023/02/05 09:12:45;;;;;;;10.43;2.97;;;4.80;99.90;;;;;;4901870;29;20056;-76
2023/02/05 09:15:12;;;;;;;8.40;2.97;;;4.70;99.90;;;;;;4902368;29;20040;-77
2023/02/05 09:17:39;;;;;;;13.98;3.58;;;4.70;99.90;;;;;;4902046;29;20081;-77
2023/02/05 09:20:06;;;;;;;13.18;3.63;;;4.80;99.90;;;;;;4903212;29;20040;-77
2023/02/05 09:22:33;;;;;;;8.27;3.55;;;4.90;99.90;;;;;;4902163;29;20048;-77
2023/02/05 09:24:59;;;;;;;15.25;3.05;;;5.00;99.90;;;;;;4891352;29;20361;-76
2023/02/05 09:27:27;;;;;;;14.85;3.42;;;5.00;99.90;;;;;;4898240;29;20060;-76
2023/02/05 09:29:54;;;;;;;12.85;3.10;;;5.10;99.90;;;;;;4902018;29;20052;-77
2023/02/05 09:32:20;;;;;;;13.68;3.70;;;5.20;99.90;;;;;;4902778;29;20127;-77
2023/02/05 09:34:48;;;;;;;16.15;3.13;;;5.30;99.90;;;;;;4902323;29;20052;-77
2023/02/05 09:37:15;;;;;;;13.82;3.00;;;5.40;99.90;;;;;;4907867;29;20351;-77
2023/02/05 09:39:42;;;;;;;13.02;4.32;;;5.40;99.90;;;;;;4906289;29;20049;-77
2023/02/05 09:42:28;;;;;;;12.05;2.97;;;5.50;99.90;;;;;;4914215;29;20048;-77
2023/02/05 09:44:55;;;;;;;8.93;2.50;;;5.70;99.90;;;;;;4917259;29;20046;-78
2023/02/05 09:47:23;;;;;;;16.50;3.40;;;5.70;99.90;;;;;;4913096;29;20040;-76
2023/02/05 09:49:49;;;;;;;13.02;4.53;;;5.80;99.90;;;;;;4914473;29;20467;-77
2023/02/05 09:52:16;;;;;;;11.75;3.58;;;5.80;99.90;;;;;;4935909;29;20111;-76
2023/02/05 09:54:43;;;;;;;12.38;2.80;;;5.70;99.90;;;;;;4920879;29;20048;-76
2023/02/05 09:57:09;;;;;;;12.60;3.05;;;5.70;99.90;;;;;;4919876;29;20379;-76
2023/02/05 09:59:36;;;;;;;9.05;3.67;;;5.80;99.90;;;;;;4921375;29;20135;-76
2023/02/05 10:02:03;;;;;;;10.63;3.40;;;6.00;99.90;;;;;;4920285;29;20375;-76
2023/02/05 10:04:31;;;;;;;10.23;3.03;;;6.20;99.90;;;;;;4920044;29;20433;-77
2023/02/05 10:06:58;;;;;;;15.15;3.50;;;6.40;99.90;;;;;;4921336;29;20131;-77
2023/02/05 10:09:25;;;;;;;16.25;3.28;;;6.60;99.90;;;;;;4920351;29;20095;-77
2023/02/05 10:11:51;;;;;;;11.32;3.15;;;6.60;99.90;;;;;;4921026;29;20052;-77
2023/02/05 10:14:18;;;;;;;15.88;4.45;;;6.80;99.90;;;;;;4935395;29;20067;-76
2023/02/05 10:16:45;;;;;;;8.63;3.50;;;6.90;99.90;;;;;;4919905;29;20051;-76
2023/02/05 10:19:12;;;;;;;10.32;3.47;;;6.90;99.90;;;;;;4913831;29;20096;-77
2023/02/05 10:21:38;;;;;;;13.25;3.47;;;7.10;99.90;;;;;;4902247;29;20460;-76
2023/02/05 10:24:05;;;;;;;12.27;3.00;;;7.30;99.90;;;;;;4902586;29;20439;-77
2023/02/05 10:26:32;;;;;;;10.18;3.90;;;7.40;99.90;;;;;;4901625;29;20048;-76
2023/02/05 10:28:58;;;;;;;10.30;2.85;;;7.50;99.90;;;;;;4900536;29;20398;-77
2023/02/05 10:31:25;;;;;;;10.88;3.55;;;7.70;99.90;;;;;;4901467;29;20115;-77
2023/02/05 10:33:55;;;;;;;7.63;2.70;;;7.70;99.90;;;;;;4915747;29;20495;-76
2023/02/05 10:36:22;;;;;;;14.88;3.47;;;7.90;99.90;;;;;;4900346;29;20424;-77
2023/02/05 10:38:51;;;;;;;11.07;2.95;;;8.00;99.90;;;;;;4900259;29;20412;-77
2023/02/05 10:41:18;;;;;;;8.70;3.33;;;8.10;99.90;;;;;;4901341;29;20056;-77
2023/02/05 10:43:44;;;;;;;19.00;4.57;;;8.00;99.90;;;;;;4899709;29;20728;-76
2023/02/05 10:46:11;;;;;;;14.60;3.75;;;8.20;99.90;;;;;;4901246;29;20435;-77
2023/02/05 10:48:38;;;;;;;18.00;3.42;;;8.20;99.90;;;;;;4901235;29;20479;-77
2023/02/05 10:51:04;;;;;;;14.52;3.03;;;8.40;99.90;;;;;;4900232;29;20349;-77
2023/02/05 10:53:31;;;;;;;13.45;3.10;;;8.60;99.90;;;;;;4900594;29;20044;-77
2023/02/05 10:55:58;;;;;;;10.63;3.00;;;8.70;99.90;;;;;;4898687;29;20068;-77
2023/02/05 10:58:25;;;;;;;16.25;4.40;;;8.70;99.90;;;;;;4900939;29;20452;-77
2023/02/05 11:00:51;;;;;;;10.98;3.33;;;8.50;99.90;;;;;;4900004;29;20076;-77
2023/02/05 11:03:18;;;;;;;21.73;3.90;;;8.40;99.90;;;;;;4899911;29;20108;-77
2023/02/05 11:05:45;;;;;;;7.65;2.80;;;8.40;99.90;;;;;;4900335;29;20041;-77
2023/02/05 11:08:15;;;;;;;17.27;5.32;;;8.50;99.90;;;;;;4900707;29;20054;-77
2023/02/05 11:10:42;;;;;;;10.07;3.70;;;8.60;99.90;;;;;;4883181;29;20538;-76
2023/02/05 11:13:08;;;;;;;11.73;3.33;;;8.60;99.90;;;;;;4915343;29;20052;-76
2023/02/05 11:15:35;;;;;;;12.75;4.25;;;8.70;99.90;;;;;;4899534;29;20065;-77
2023/02/05 11:18:02;;;;;;;10.65;2.78;;;8.90;99.90;;;;;;4900604;29;20391;-77
2023/02/05 11:20:28;;;;;;;14.60;3.42;;;9.30;99.90;;;;;;4900521;29;20040;-77
2023/02/05 11:22:55;;;;;;;17.35;3.30;;;9.70;99.90;;;;;;4914349;29;20044;-77
2023/02/05 11:25:26;;;;;;;10.98;3.35;;;9.90;99.90;;;;;;4899123;29;20052;-77
2023/02/05 11:27:52;;;;;;;8.88;3.47;;;9.90;99.90;;;;;;4900501;29;20056;-77
2023/02/05 11:30:19;;;;;;;10.30;2.90;;;9.90;99.90;;;;;;4899422;29;20061;-77
2023/02/05 11:33:06;;;;;;;9.30;3.08;;;9.80;99.90;;;;;;4900332;29;20455;-77
2023/02/05 11:35:32;;;;;;;14.85;4.55;;;9.70;99.90;;;;;;4899764;29;20072;-77
2023/02/05 11:37:59;;;;;;;11.88;3.15;;;9.90;99.90;;;;;;4899472;29;20500;-76
2023/02/05 11:40:26;;;;;;;10.90;3.10;;;10.10;99.90;;;;;;4900063;29;20059;-77
2023/02/05 11:42:53;;;;;;;14.30;4.07;;;10.10;99.90;;;;;;4899171;29;20044;-76
2023/02/05 11:45:24;;;;;;;10.85;3.05;;;10.60;99.90;;;;;;4898508;29;20429;-77
2023/02/05 11:47:50;;;;;;;6.88;2.53;;;10.90;99.90;;;;;;4900222;29;20424;-77
2023/02/05 11:50:17;;;;;;;14.07;3.88;;;10.80;99.90;;;;;;4898923;29;20120;-77
2023/02/05 11:52:44;;;;;;;12.38;2.85;;;10.80;99.90;;;;;;4900032;29;20049;-77
2023/02/05 11:55:11;;;;;;;7.93;3.58;;;10.70;99.90;;;;;;4899552;29;20040;-76
2023/02/05 11:57:38;;;;;;;10.63;2.90;;;10.80;99.90;;;;;;4899006;29;20115;-78
2023/02/05 12:00:04;;;;;;;9.35;2.55;;;11.00;99.90;;;;;;4900201;29;20456;-76
2023/02/05 12:02:31;;;;;;;11.40;3.17;;;11.10;99.90;;;;;;4898184;29;20056;-76
2023/02/05 12:04:58;;;;;;;13.35;3.78;;;11.10;99.90;;;;;;4899278;29;20067;-77
2023/02/05 12:07:24;;;;;;;9.55;2.78;;;11.30;99.90;;;;;;4900041;29;20048;-77
2023/02/05 12:09:57;;;;;;;10.35;2.78;;;10.80;99.90;;;;;;4898905;29;20040;-76
2023/02/05 12:12:24;;;;;;;11.02;2.85;;;10.50;99.90;;;;;;4899941;29;20518;-76
2023/02/05 12:14:51;;;;;;;9.05;2.88;;;10.10;99.90;;;;;;4899395;29;20079;-77
2023/02/05 12:17:17;;;;;;;12.65;2.88;;;9.80;99.90;;;;;;4898598;29;20432;-76
2023/02/05 12:19:44;;;;;;;13.05;2.97;;;9.80;99.90;;;;;;4899667;29;20433;-77
2023/02/05 12:22:11;;;;;;;14.85;3.60;;;9.60;99.90;;;;;;4899662;29;20132;-76
2023/02/05 12:24:38;;;;;;;17.75;4.47;;;9.40;99.90;;;;;;4898053;29;20140;-76
2023/02/05 12:27:04;;;;;;;10.93;3.45;;;9.20;99.90;;;;;;4899466;29;20059;-76
2023/02/05 12:29:31;;;;;;;12.10;3.15;;;9.10;99.90;;;;;;4898853;29;20068;-76
2023/02/05 12:31:58;;;;;;;13.57;3.80;;;9.00;99.90;;;;;;4899524;29;20072;-76
2023/02/05 12:34:28;;;;;;;12.35;3.30;;;8.80;99.90;;;;;;4898614;29;20433;-76
2023/02/05 12:36:57;;;;;;;14.63;3.55;;;8.70;99.90;;;;;;4898704;29;20387;-77
2023/02/05 12:39:23;;;;;;;11.02;3.28;;;8.60;99.90;;;;;;4899583;29;20132;-76
2023/02/05 12:41:50;;;;;;;20.00;4.60;;;8.50;99.90;;;;;;4899497;29;20422;-77
2023/02/05 12:44:17;;;;;;;9.63;3.05;;;8.40;99.90;;;;;;4898174;29;20415;-77
2023/02/05 12:46:43;;;;;;;15.48;3.03;;;8.40;99.90;;;;;;4898446;29;20064;-77
2023/02/05 12:49:10;;;;;;;9.68;2.83;;;8.30;99.90;;;;;;4898492;29;20127;-76
2023/02/05 12:51:37;;;;;;;15.35;3.78;;;8.40;99.90;;;;;;4898648;29;20071;-76